createdAt,value
2019-04-28T00:01:13.013Z,4.60
2019-04-28T00:03:39.158Z,4.60
2019-04-28T00:06:05.767Z,4.60
2019-04-28T00:08:32.139Z,4.60
2019-04-28T00:11:01.473Z,4.60
2019-04-28T00:13:28.243Z,4.60
2019-04-28T00:15:54.479Z,4.60
2019-04-28T00:18:22.007Z,4.70
2019-04-28T00:21:02.271Z,4.70
2019-04-28T00:23:39.493Z,4.70
2019-04-28T00:26:07.745Z,4.80
2019-04-28T00:28:34.271Z,4.80
2019-04-28T00:31:02.462Z,4.80
2019-04-28T00:33:28.872Z,4.80
2019-04-28T00:35:55.195Z,4.80
2019-04-28T00:38:21.650Z,4.80
2019-04-28T00:40:48.053Z,4.80
2019-04-28T00:43:14.243Z,4.80
2019-04-28T00:45:41.347Z,4.80
2019-04-28T00:48:07.768Z,4.80
2019-04-28T00:50:34.079Z,4.80
2019-04-28T00:53:01.766Z,4.80
2019-04-28T00:55:28.183Z,4.80
2019-04-28T00:57:54.434Z,4.70
2019-04-28T01:00:23.153Z,4.80
2019-04-28T01:02:50.969Z,4.80
2019-04-28T01:05:18.535Z,4.70
2019-04-28T01:07:44.754Z,4.70
2019-04-28T01:10:11.767Z,4.70
2019-04-28T01:12:38.039Z,4.70
2019-04-28T01:15:06.472Z,4.60
2019-04-28T01:17:39.651Z,4.60
2019-04-28T01:20:19.989Z,4.60
2019-04-28T01:22:46.208Z,4.60
2019-04-28T01:25:12.524Z,4.60
2019-04-28T01:27:40.780Z,4.50
2019-04-28T01:30:11.303Z,4.50
2019-04-28T01:32:39.962Z,4.40
2019-04-28T01:35:06.512Z,4.40
2019-04-28T01:37:32.941Z,4.40
2019-04-28T01:39:59.730Z,4.40
2019-04-28T01:42:26.078Z,4.40
2019-04-28T01:44:52.310Z,4.40
2019-04-28T01:47:20.366Z,4.50
2019-04-28T01:49:46.611Z,4.50
2019-04-28T01:52:12.852Z,4.50
2019-04-28T01:54:40.265Z,4.50
2019-04-28T01:57:06.742Z,4.40
2019-04-28T01:59:33.070Z,4.40
2019-04-28T02:02:00.170Z,4.40
2019-04-28T02:04:26.675Z,4.40
2019-04-28T02:06:53.125Z,4.40
2019-04-28T02:09:19.553Z,4.40
2019-04-28T02:11:45.781Z,4.50
2019-04-28T02:14:12.002Z,4.50
2019-04-28T02:16:38.198Z,4.50
2019-04-28T02:19:04.570Z,4.50
2019-04-28T02:21:44.688Z,4.50
2019-04-28T02:24:30.747Z,4.40
2019-04-28T02:26:57.981Z,4.40
2019-04-28T02:29:24.254Z,4.40
2019-04-28T02:31:51.165Z,4.30
2019-04-28T02:34:17.527Z,4.30
2019-04-28T02:36:43.843Z,4.30
2019-04-28T02:39:10.652Z,4.30
2019-04-28T02:41:37.069Z,4.30
2019-04-28T02:44:03.487Z,4.30
2019-04-28T02:46:30.790Z,4.30
2019-04-28T02:48:57.346Z,4.30
2019-04-28T02:51:31.402Z,4.30
2019-04-28T02:53:57.707Z,4.30
2019-04-28T02:56:23.862Z,4.30
2019-04-28T02:58:50.968Z,4.30
2019-04-28T03:01:24.893Z,4.20
2019-04-28T03:03:45.470Z,4.20
2019-04-28T03:06:11.911Z,4.20
2019-04-28T03:08:40.535Z,4.10
2019-04-28T03:11:06.452Z,4.10
2019-04-28T03:13:32.887Z,4.10
2019-04-28T03:16:01.533Z,4.00
2019-04-28T03:18:27.420Z,4.00
2019-04-28T03:20:53.896Z,3.90
2019-04-28T03:23:20.789Z,3.90
2019-04-28T03:25:54.761Z,3.90
2019-04-28T03:28:23.173Z,3.90
2019-04-28T03:30:54.610Z,3.80
2019-04-28T03:33:25.553Z,3.70
2019-04-28T03:35:53.600Z,3.70
2019-04-28T03:38:21.369Z,3.70
2019-04-28T03:40:47.395Z,3.60
2019-04-28T03:43:14.507Z,3.60
2019-04-28T03:45:43.232Z,3.50
2019-04-28T03:48:11.445Z,3.50
2019-04-28T03:50:37.553Z,3.40
2019-04-28T03:53:03.790Z,3.40
2019-04-28T03:55:34.468Z,3.40
2019-04-28T03:58:00.772Z,3.40
2019-04-28T04:00:26.190Z,3.40
2019-04-28T04:02:52.497Z,3.30
2019-04-28T04:05:20.834Z,3.40
2019-04-28T04:07:46.883Z,3.30
2019-04-28T04:10:40.308Z,3.20
2019-04-28T04:13:14.400Z,3.20
2019-04-28T04:16:01.562Z,3.20
2019-04-28T04:18:41.390Z,3.20
2019-04-28T04:21:07.829Z,3.20
2019-04-28T04:23:33.992Z,3.10
2019-04-28T04:26:01.584Z,3.10
2019-04-28T04:28:30.423Z,3.00
2019-04-28T04:30:57.081Z,3.10
2019-04-28T04:33:23.946Z,3.10
2019-04-28T04:35:51.720Z,3.00
2019-04-28T04:38:18.092Z,2.90
2019-04-28T04:40:44.479Z,2.90
2019-04-28T04:43:11.415Z,3.00
2019-04-28T04:45:40.267Z,2.90
2019-04-28T04:48:05.885Z,2.90
2019-04-28T04:50:32.137Z,2.80
2019-04-28T04:52:58.510Z,2.80
2019-04-28T04:55:25.523Z,2.80
2019-04-28T04:57:51.752Z,2.90
2019-04-28T05:00:22.638Z,2.80
2019-04-28T05:03:02.752Z,2.80
2019-04-28T05:05:30.991Z,2.80
2019-04-28T05:07:57.331Z,2.80
2019-04-28T05:10:23.727Z,2.80
2019-04-28T05:12:51.670Z,2.90
2019-04-28T05:15:18.194Z,2.80
2019-04-28T05:17:44.313Z,2.80
2019-04-28T05:20:10.755Z,2.90
2019-04-28T05:22:39.996Z,3.00
2019-04-28T05:25:10.317Z,3.00
2019-04-28T05:27:37.175Z,3.00
2019-04-28T05:30:05.759Z,3.00
2019-04-28T05:32:42.398Z,3.00
2019-04-28T05:35:00.251Z,3.10
2019-04-28T05:37:26.585Z,3.20
2019-04-28T05:39:52.809Z,3.30
2019-04-28T05:42:19.902Z,3.30
2019-04-28T05:44:46.328Z,3.30
2019-04-28T05:47:12.587Z,3.40
2019-04-28T05:49:51.329Z,3.50
2019-04-28T05:52:36.778Z,3.60
2019-04-28T05:55:12.579Z,3.60
2019-04-28T05:57:46.731Z,3.70
2019-04-28T06:00:15.105Z,3.80
2019-04-28T06:02:56.381Z,3.90
2019-04-28T06:05:17.567Z,4.00
2019-04-28T06:07:45.646Z,4.10
2019-04-28T06:10:12.471Z,4.20
2019-04-28T06:12:40.592Z,4.30
2019-04-28T06:15:07.125Z,4.40
2019-04-28T06:17:33.279Z,4.50
2019-04-28T06:20:00.203Z,4.60
2019-04-28T06:22:26.433Z,4.60
2019-04-28T06:24:52.667Z,4.70
2019-04-28T06:27:18.903Z,4.80
2019-04-28T06:29:45.179Z,4.80
2019-04-28T06:32:11.430Z,4.90
2019-04-28T06:34:39.848Z,5.00
2019-04-28T06:37:06.195Z,5.00
2019-04-28T06:39:32.353Z,5.10
2019-04-28T06:41:58.511Z,5.10
2019-04-28T06:44:24.772Z,5.20
2019-04-28T06:46:51.029Z,5.20
2019-04-28T06:49:17.328Z,5.30
2019-04-28T06:51:43.625Z,5.40
2019-04-28T06:54:10.085Z,5.50
2019-04-28T06:56:36.505Z,5.60
2019-04-28T06:59:03.415Z,5.70
2019-04-28T07:01:29.895Z,5.80
2019-04-28T07:03:56.174Z,5.80
2019-04-28T07:06:22.682Z,5.80
2019-04-28T07:08:48.951Z,5.80
2019-04-28T07:11:15.248Z,5.90
2019-04-28T07:13:41.509Z,5.90
2019-04-28T07:16:07.848Z,5.90
2019-04-28T07:18:33.975Z,5.90
2019-04-28T07:21:04.817Z,5.90
2019-04-28T07:23:32.219Z,6.00
2019-04-28T07:25:58.559Z,6.00
2019-04-28T07:28:25.004Z,6.00
2019-04-28T07:30:51.470Z,6.00
2019-04-28T07:33:17.732Z,6.20
2019-04-28T07:35:43.865Z,6.20
2019-04-28T07:38:10.227Z,6.10
2019-04-28T07:40:36.766Z,6.00
2019-04-28T07:43:03.200Z,6.00
2019-04-28T07:45:29.439Z,6.00
2019-04-28T07:47:55.702Z,6.00
2019-04-28T07:50:22.258Z,6.00
2019-04-28T07:52:50.413Z,6.00
2019-04-28T07:55:16.742Z,6.00
2019-04-28T07:57:42.983Z,6.00
2019-04-28T08:00:11.535Z,6.20
2019-04-28T08:02:37.789Z,6.30
2019-04-28T08:05:05.255Z,6.30
2019-04-28T08:07:31.550Z,6.40
2019-04-28T08:09:58.072Z,6.60
2019-04-28T08:12:24.468Z,6.70
2019-04-28T08:14:50.742Z,6.70
2019-04-28T08:17:16.947Z,6.80
2019-04-28T08:19:43.331Z,6.70
2019-04-28T08:22:09.661Z,6.80
2019-04-28T08:24:36.166Z,7.00
2019-04-28T08:27:02.790Z,7.10
2019-04-28T08:29:29.026Z,7.10
2019-04-28T08:32:09.058Z,7.30
2019-04-28T08:34:35.964Z,7.50
2019-04-28T08:37:02.713Z,7.60
2019-04-28T08:39:29.322Z,7.40
2019-04-28T08:41:55.908Z,7.30
2019-04-28T08:44:22.391Z,7.40
2019-04-28T08:46:51.152Z,7.60
2019-04-28T08:49:18.248Z,7.90
2019-04-28T08:51:44.617Z,8.10
2019-04-28T08:54:11.385Z,8.00
2019-04-28T08:56:37.644Z,8.00
2019-04-28T08:59:05.048Z,8.10
2019-04-28T09:01:31.551Z,8.20
2019-04-28T09:03:57.783Z,8.20
2019-04-28T09:06:24.228Z,8.20
2019-04-28T09:08:50.486Z,8.20
2019-04-28T09:11:16.764Z,8.40
2019-04-28T09:13:44.039Z,8.60
2019-04-28T09:16:10.395Z,9.00
2019-04-28T09:18:36.848Z,9.20
2019-04-28T09:21:03.269Z,9.00
2019-04-28T09:23:29.487Z,8.80
2019-04-28T09:25:55.939Z,8.60
2019-04-28T09:28:22.177Z,8.50
2019-04-28T09:30:48.478Z,8.50
2019-04-28T09:33:14.871Z,8.50
2019-04-28T09:35:41.131Z,8.40
2019-04-28T09:38:07.392Z,8.10
2019-04-28T09:40:33.709Z,7.80
2019-04-28T09:43:01.813Z,7.50
2019-04-28T09:45:30.085Z,7.40
2019-04-28T09:47:56.315Z,7.20
2019-04-28T09:50:22.571Z,7.10
2019-04-28T09:52:48.945Z,7.00
2019-04-28T09:55:15.226Z,6.90
2019-04-28T09:57:41.380Z,6.90
2019-04-28T10:00:09.146Z,7.00
2019-04-28T10:02:35.562Z,7.10
2019-04-28T10:05:02.575Z,7.20
2019-04-28T10:07:28.838Z,7.30
2019-04-28T10:09:54.994Z,7.40
2019-04-28T10:12:27.387Z,7.60
2019-04-28T10:14:49.476Z,7.80
2019-04-28T10:17:15.974Z,7.80
2019-04-28T10:19:42.132Z,7.90
2019-04-28T10:22:08.461Z,7.80
2019-04-28T10:24:34.626Z,7.80
2019-04-28T10:27:00.758Z,7.70
2019-04-28T10:29:26.996Z,7.70
2019-04-28T10:31:53.423Z,7.70
2019-04-28T10:34:19.648Z,7.90
2019-04-28T10:36:45.810Z,8.30
2019-04-28T10:39:23.143Z,8.90
2019-04-28T10:41:49.395Z,9.50
2019-04-28T10:44:15.818Z,10.00
2019-04-28T10:46:42.172Z,10.30
2019-04-28T10:49:08.549Z,10.80
2019-04-28T10:51:34.954Z,11.20
2019-04-28T10:54:01.208Z,11.30
2019-04-28T10:56:27.440Z,11.00
2019-04-28T10:58:54.390Z,10.60
2019-04-28T11:01:20.677Z,10.30
2019-04-28T11:03:48.840Z,10.00
2019-04-28T11:06:15.643Z,9.70
2019-04-28T11:08:44.012Z,9.60
2019-04-28T11:11:14.779Z,9.40
2019-04-28T11:13:41.074Z,9.20
2019-04-28T11:16:07.706Z,9.00
2019-04-28T11:18:34.080Z,8.80
2019-04-28T11:21:00.471Z,8.50
2019-04-28T11:23:26.752Z,8.40
2019-04-28T11:25:53.310Z,8.30
2019-04-28T11:28:19.649Z,8.20
2019-04-28T11:30:46.004Z,8.00
2019-04-28T11:33:17.102Z,8.00
2019-04-28T11:35:45.302Z,8.00
2019-04-28T11:38:11.724Z,7.90
2019-04-28T11:40:37.942Z,7.90
2019-04-28T11:43:04.375Z,7.80
2019-04-28T11:45:30.818Z,7.80
2019-04-28T11:47:57.039Z,7.80
2019-04-28T11:50:23.309Z,7.90
2019-04-28T11:52:49.684Z,8.00
2019-04-28T11:55:16.110Z,8.10
2019-04-28T11:57:42.548Z,8.20
2019-04-28T12:00:23.065Z,8.20
2019-04-28T12:02:49.349Z,8.30
2019-04-28T12:05:15.703Z,8.20
2019-04-28T12:07:41.853Z,8.20
2019-04-28T12:10:13.228Z,8.40
2019-04-28T12:12:50.548Z,8.50
2019-04-28T12:15:24.553Z,8.50
2019-04-28T12:18:03.471Z,8.60
2019-04-28T12:20:29.785Z,8.90
2019-04-28T12:22:56.041Z,9.10
2019-04-28T12:25:22.343Z,9.10
2019-04-28T12:27:48.721Z,9.00
2019-04-28T12:30:15.359Z,9.00
2019-04-28T12:32:41.680Z,9.40
2019-04-28T12:35:08.128Z,9.60
2019-04-28T12:37:34.343Z,9.60
2019-04-28T12:40:00.612Z,9.60
2019-04-28T12:42:26.838Z,9.60
2019-04-28T12:44:52.978Z,9.50
2019-04-28T12:47:19.110Z,9.50
2019-04-28T12:49:47.229Z,9.40
2019-04-28T12:52:13.854Z,9.40
2019-04-28T12:54:40.660Z,9.40
2019-04-28T12:57:06.958Z,9.40
2019-04-28T12:59:37.787Z,9.30
2019-04-28T13:02:08.753Z,9.30
2019-04-28T13:04:43.039Z,9.40
2019-04-28T13:07:09.920Z,9.60
2019-04-28T13:09:36.252Z,9.70
2019-04-28T13:12:03.742Z,9.70
2019-04-28T13:14:30.117Z,9.80
2019-04-28T13:16:56.447Z,9.90
2019-04-28T13:19:22.809Z,9.90
2019-04-28T13:21:49.047Z,10.00
2019-04-28T13:24:15.287Z,10.00
2019-04-28T13:26:41.681Z,10.10
2019-04-28T13:29:08.029Z,10.20
2019-04-28T13:31:34.476Z,10.30
2019-04-28T13:34:01.498Z,10.50
2019-04-28T13:36:27.905Z,10.50
2019-04-28T13:38:55.972Z,10.40
2019-04-28T13:41:22.300Z,10.30
2019-04-28T13:43:48.427Z,10.10
2019-04-28T13:46:14.818Z,9.90
2019-04-28T13:48:41.235Z,9.80
2019-04-28T13:51:07.542Z,9.80
2019-04-28T13:53:33.937Z,9.80
2019-04-28T13:56:02.097Z,9.80
2019-04-28T13:58:33.119Z,9.80
2019-04-28T14:01:16.443Z,9.70
2019-04-28T14:03:50.894Z,9.70
2019-04-28T14:06:28.862Z,9.60
2019-04-28T14:08:55.221Z,9.60
2019-04-28T14:11:21.376Z,9.60
2019-04-28T14:13:47.636Z,9.60
2019-04-28T14:16:14.089Z,9.60
2019-04-28T14:18:40.352Z,9.70
2019-04-28T14:21:07.983Z,9.60
2019-04-28T14:23:34.368Z,9.60
2019-04-28T14:26:00.690Z,9.70
2019-04-28T14:28:26.946Z,9.70
2019-04-28T14:30:54.337Z,9.80
2019-04-28T14:33:20.541Z,9.80
2019-04-28T14:35:46.861Z,9.80
2019-04-28T14:38:14.681Z,9.90
2019-04-28T14:40:42.595Z,10.00
2019-04-28T14:43:10.553Z,10.10
2019-04-28T14:45:38.345Z,10.20
2019-04-28T14:48:06.084Z,10.20
2019-04-28T14:50:33.989Z,10.40
2019-04-28T14:53:01.663Z,10.40
2019-04-28T14:55:29.557Z,10.40
2019-04-28T14:57:57.340Z,10.40
2019-04-28T15:00:28.289Z,10.40
2019-04-28T15:02:56.347Z,10.40
2019-04-28T15:05:24.622Z,10.40
2019-04-28T15:07:52.765Z,10.50
2019-04-28T15:10:24.109Z,10.60
2019-04-28T15:12:50.240Z,10.60
2019-04-28T15:15:19.716Z,10.70
2019-04-28T15:17:44.609Z,10.70
2019-04-28T15:20:11.124Z,10.70
2019-04-28T15:22:37.330Z,10.80
2019-04-28T15:25:04.863Z,10.80
2019-04-28T15:27:31.120Z,11.00
2019-04-28T15:29:57.338Z,10.90
2019-04-28T15:32:23.580Z,10.70
2019-04-28T15:34:49.955Z,10.60
2019-04-28T15:37:16.138Z,10.60
2019-04-28T15:39:42.376Z,10.50
2019-04-28T15:42:08.969Z,10.50
2019-04-28T15:44:35.205Z,10.50
2019-04-28T15:47:01.573Z,10.50
2019-04-28T15:49:27.962Z,10.40
2019-04-28T15:51:54.208Z,10.40
2019-04-28T15:54:20.364Z,10.40
2019-04-28T15:56:47.370Z,10.40
2019-04-28T15:59:13.739Z,10.40
2019-04-28T16:01:39.983Z,10.30
2019-04-28T16:04:06.312Z,10.40
2019-04-28T16:06:32.585Z,10.30
2019-04-28T16:08:58.835Z,10.40
2019-04-28T16:11:25.071Z,10.30
2019-04-28T16:13:51.222Z,10.40
2019-04-28T16:16:17.455Z,10.40
2019-04-28T16:18:43.755Z,10.40
2019-04-28T16:21:10.101Z,10.40
2019-04-28T16:23:36.232Z,10.40
2019-04-28T16:26:02.789Z,10.40
2019-04-28T16:28:29.022Z,10.40
2019-04-28T16:30:55.286Z,10.40
2019-04-28T16:33:21.547Z,10.40
2019-04-28T16:35:48.194Z,10.50
2019-04-28T16:38:14.390Z,10.50
2019-04-28T16:40:49.037Z,10.50
2019-04-28T16:43:21.031Z,10.50
2019-04-28T16:45:47.246Z,10.50
2019-04-28T16:48:13.408Z,10.50
2019-04-28T16:50:40.770Z,10.40
2019-04-28T16:53:07.051Z,10.30
2019-04-28T16:55:44.332Z,10.20
2019-04-28T16:58:12.576Z,10.10
2019-04-28T17:00:43.474Z,10.00
2019-04-28T17:03:10.130Z,10.00
2019-04-28T17:05:36.514Z,9.90
2019-04-28T17:08:02.982Z,9.90
2019-04-28T17:10:29.194Z,9.80
2019-04-28T17:12:55.350Z,9.80
2019-04-28T17:15:21.687Z,9.80
2019-04-28T17:17:47.909Z,9.80
2019-04-28T17:20:14.563Z,9.80
2019-04-28T17:22:40.838Z,9.80
2019-04-28T17:25:07.496Z,9.80
2019-04-28T17:27:33.726Z,9.80
2019-04-28T17:29:59.951Z,9.80
2019-04-28T17:32:26.095Z,9.70
2019-04-28T17:34:52.435Z,9.70
2019-04-28T17:37:18.788Z,9.70
2019-04-28T17:39:45.023Z,9.70
2019-04-28T17:42:12.549Z,9.60
2019-04-28T17:44:38.818Z,9.60
2019-04-28T17:47:05.483Z,9.60
2019-04-28T17:49:33.942Z,9.60
2019-04-28T17:52:01.242Z,9.60
2019-04-28T17:54:27.421Z,9.60
2019-04-28T17:56:54.890Z,9.60
2019-04-28T17:59:22.298Z,9.60
2019-04-28T18:02:05.790Z,9.60
2019-04-28T18:04:37.188Z,9.60
2019-04-28T18:07:05.516Z,9.50
2019-04-28T18:09:32.930Z,9.40
2019-04-28T18:11:59.300Z,9.40
2019-04-28T18:14:25.654Z,9.30
2019-04-28T18:17:10.443Z,9.30
2019-04-28T18:19:36.829Z,9.30
2019-04-28T18:22:04.146Z,9.20
2019-04-28T18:24:30.511Z,9.30
2019-04-28T18:26:56.988Z,9.30
2019-04-28T18:29:23.326Z,9.20
2019-04-28T18:31:57.535Z,9.20
2019-04-28T18:34:28.543Z,9.20
2019-04-28T18:37:20.564Z,9.10
2019-04-28T18:39:57.477Z,9.10
2019-04-28T18:42:25.522Z,9.00
2019-04-28T18:44:51.805Z,9.00
2019-04-28T18:47:18.134Z,9.00
2019-04-28T18:49:44.396Z,9.00
2019-04-28T18:52:11.286Z,8.90
2019-04-28T18:54:37.570Z,8.90
2019-04-28T18:57:03.909Z,8.90
2019-04-28T18:59:31.250Z,8.80
2019-04-28T19:01:59.487Z,8.80
2019-04-28T19:04:25.761Z,8.80
2019-04-28T19:07:04.472Z,8.80
2019-04-28T19:09:22.322Z,8.80
2019-04-28T19:11:50.568Z,8.80
2019-04-28T19:14:30.813Z,8.80
2019-04-28T19:17:02.301Z,8.70
2019-04-28T19:19:30.420Z,8.70
2019-04-28T19:21:57.210Z,8.70
2019-04-28T19:24:25.174Z,8.60
2019-04-28T19:26:52.918Z,8.60
2019-04-28T19:29:19.680Z,8.60
2019-04-28T19:31:46.008Z,8.60
2019-04-28T19:34:12.283Z,8.50
2019-04-28T19:36:38.535Z,8.50
2019-04-28T19:39:05.011Z,8.50
2019-04-28T19:41:31.160Z,8.40
2019-04-28T19:43:57.322Z,8.40
2019-04-28T19:46:23.552Z,8.50
2019-04-28T19:48:49.868Z,8.50
2019-04-28T19:51:30.777Z,8.50
2019-04-28T19:53:46.087Z,8.50
2019-04-28T19:56:14.133Z,8.50
2019-04-28T19:58:45.004Z,8.50
2019-04-28T20:01:13.360Z,8.50
2019-04-28T20:03:39.719Z,8.50
2019-04-28T20:06:05.997Z,8.40
2019-04-28T20:08:32.392Z,8.40
2019-04-28T20:10:58.707Z,8.40
2019-04-28T20:13:24.940Z,8.30
2019-04-28T20:15:51.382Z,8.30
2019-04-28T20:18:17.638Z,8.30
2019-04-28T20:20:43.868Z,8.20
2019-04-28T20:23:10.225Z,8.10
2019-04-28T20:25:36.586Z,8.10
2019-04-28T20:28:02.929Z,8.10
2019-04-28T20:30:29.655Z,8.00
2019-04-28T20:33:06.445Z,7.90
2019-04-28T20:35:25.918Z,7.90
2019-04-28T20:37:57.175Z,7.90
2019-04-28T20:40:37.218Z,7.90
2019-04-28T20:43:08.351Z,7.90
2019-04-28T20:45:34.603Z,7.90
2019-04-28T20:48:00.845Z,7.90
2019-04-28T20:50:27.155Z,7.90
2019-04-28T20:52:53.551Z,7.90
2019-04-28T20:55:19.810Z,7.80
2019-04-28T20:57:46.020Z,7.80
2019-04-28T21:00:12.719Z,7.70
2019-04-28T21:02:39.176Z,7.70
2019-04-28T21:05:05.792Z,7.70
2019-04-28T21:07:31.913Z,7.70
2019-04-28T21:09:58.147Z,7.70
2019-04-28T21:12:24.270Z,7.70
2019-04-28T21:14:50.665Z,7.70
2019-04-28T21:17:16.887Z,7.70
2019-04-28T21:19:43.020Z,7.60
2019-04-28T21:22:09.266Z,7.60
2019-04-28T21:24:35.620Z,7.60
2019-04-28T21:27:01.904Z,7.60
2019-04-28T21:29:28.157Z,7.50
2019-04-28T21:31:54.686Z,7.50
2019-04-28T21:34:21.042Z,7.50
2019-04-28T21:36:47.535Z,7.50
2019-04-28T21:39:14.253Z,7.50
2019-04-28T21:41:40.540Z,7.50
2019-04-28T21:44:08.739Z,7.50
2019-04-28T21:46:37.051Z,7.50
2019-04-28T21:49:05.477Z,7.50
2019-04-28T21:51:32.111Z,7.50
2019-04-28T21:53:58.425Z,7.50
2019-04-28T21:56:24.904Z,7.50
2019-04-28T21:58:51.206Z,7.40
2019-04-28T22:01:20.788Z,7.40
2019-04-28T22:03:47.152Z,7.40
2019-04-28T22:06:13.704Z,7.40
2019-04-28T22:08:39.971Z,7.40
2019-04-28T22:11:06.306Z,7.30
2019-04-28T22:13:32.509Z,7.30
2019-04-28T22:15:58.805Z,7.20
2019-04-28T22:18:25.019Z,7.20
2019-04-28T22:20:51.162Z,7.10
2019-04-28T22:23:19.303Z,7.10
2019-04-28T22:25:45.709Z,7.00
2019-04-28T22:28:11.915Z,7.00
2019-04-28T22:30:38.091Z,7.00
2019-04-28T22:33:04.401Z,6.90
2019-04-28T22:35:30.758Z,6.80
2019-04-28T22:37:56.970Z,6.80
2019-04-28T22:40:23.418Z,6.80
2019-04-28T22:42:49.868Z,6.80
2019-04-28T22:45:16.312Z,6.80
2019-04-28T22:47:42.558Z,6.80
2019-04-28T22:50:37.177Z,6.80
2019-04-28T22:53:03.611Z,6.80
2019-04-28T22:55:31.826Z,6.80
2019-04-28T22:58:00.110Z,6.80
2019-04-28T23:00:31.485Z,6.80
2019-04-28T23:02:57.814Z,6.80
2019-04-28T23:05:24.014Z,6.80
2019-04-28T23:07:50.364Z,6.80
2019-04-28T23:10:16.643Z,6.80
2019-04-28T23:12:42.955Z,6.80
2019-04-28T23:15:09.423Z,6.70
2019-04-28T23:17:35.856Z,6.70
2019-04-28T23:20:07.006Z,6.70
2019-04-28T23:22:46.686Z,6.50
2019-04-28T23:25:07.124Z,6.50
2019-04-28T23:27:33.380Z,6.40
2019-04-28T23:29:59.590Z,6.30
2019-04-28T23:32:25.882Z,6.30
2019-04-28T23:34:52.119Z,6.30
2019-04-28T23:37:18.384Z,6.20
2019-04-28T23:39:44.511Z,6.20
2019-04-28T23:42:15.613Z,6.10
2019-04-28T23:44:41.872Z,6.10
2019-04-28T23:47:08.212Z,6.00
2019-04-28T23:49:34.458Z,5.90
2019-04-28T23:52:18.002Z,5.80
2019-04-28T23:54:52.420Z,5.70
2019-04-28T23:57:18.578Z,5.70
2019-04-28T23:59:45.087Z,5.70
